Terminal Aerodrome Forecast
Issued by NWS Twin Cities, MN

Home | Current Version | Previous Version | Text Only | Print | Product List | Glossary Off
Versions: 1 2 3 4 5 6 7 8 9 10 11 12 13 14

000
FTUS43 KMPX 192300
TAFSTC
TAF
KSTC 192329Z 2000/2024 14007KT 4SM BR OVC008
     FM200500 15005KT 2SM BR OVC004
     FM201500 17007KT 4SM BR OVC009
     FM202000 17007KT 6SM HZ OVC015=

USA.gov is the U.S. government's official web portal to all federal, state and local government web resources and services.